Latest Weather Observations for ACT PCS2

IDN60901

Issued at 12:51 pm EST Tuesday 7 July 2020 (issued every 10 minutes, with the page automatically refreshed every 10 minutes)

About weather observations | Map of Canberra area stations | Latest observations for Canberra area | Other Formats
Station Details ID: 250105 Name: ACT PCS2 Lat: -35.33 Lon: 149.05 Height: 552.0 m

Portable automatic weather stations (PAWS) are operated by other organisations, such as Fire and Emergency Services, and are included here by agreement. Portable stations may be deployed to a location for a short period and their location may be subject to change without notice. Wind observations from these stations are provided from heights of either three (3) or ten (10) metres above ground level (AGL).

Data from the previous 72 hours. | See also: Recent months for locations in Aust Capital Territory
Date/Time
EST
Temp
°C
App
Temp
°C
Dew
Point
°C
Rel
Hum
%
Delta-T
°C
Wind Press
QNH
hPa
Press
MSL
hPa
Rain since
9am
mm
Dir  Spd
km/h
Gust
km/h
Spd
kts
Gust
kts
07/12:40pm 13.2 10.7 4.0 53 4.3 SE 6 9 3 5 - - 0.0
07/12:30pm 12.9 10.2 3.8 54 4.2 S 7 9 4 5 - - 0.0
07/12:20pm 12.7 10.0 3.8 54 4.1 SSE 7 9 4 5 - - 0.0
07/12:10pm 12.5 9.8 3.6 54 4.1 S 7 11 4 6 - - 0.0
07/12:00pm 12.2 9.1 3.8 56 3.9 S 9 11 5 6 - - 0.0
07/11:50am 12.1 9.0 3.8 57 3.8 S 9 13 5 7 - - 0.0
07/11:40am 12.1 9.4 3.7 56 3.9 S 7 11 4 6 - - 0.0
07/11:30am 11.7 9.2 3.8 58 3.6 SSE 6 9 3 5 - - 0.0
07/11:20am 11.4 8.4 4.0 60 3.4 SSE 9 9 5 5 - - 0.0
07/11:10am 11.8 9.1 3.9 58 3.6 S 7 11 4 6 - - 0.0
07/11:00am 12.0 9.4 4.1 58 3.7 SSE 7 9 4 5 - - 0.0
07/10:50am 11.8 9.4 4.2 59 3.5 S 6 7 3 4 - - 0.0
07/10:40am 11.4 8.7 3.9 60 3.5 SSE 7 11 4 6 - - 0.0
07/10:30am 11.4 8.8 4.1 61 3.4 S 7 9 4 5 - - 0.0
07/10:20am 11.0 8.3 3.9 61 3.3 SSE 7 9 4 5 - - 0.0
07/10:10am 10.7 8.0 3.9 63 3.1 SSE 7 9 4 5 - - 0.0
07/10:00am 10.5 7.9 4.0 64 3.0 S 7 9 4 5 - - 0.0
07/09:50am 9.4 7.0 4.2 70 2.4 E 6 7 3 4 - - 0.0
07/09:40am 7.7 5.9 5.5 86 1.0 NNE 4 6 2 3 - - 0.0
07/09:30am 6.6 5.3 5.8 95 0.4 NNE 2 4 1 2 - - 0.0
07/09:20am 5.3 3.4 4.9 97 0.2 NNE 4 4 2 2 - - 0.0
07/09:10am 4.4 2.3 4.1 98 0.1 NNE 4 6 2 3 - - 0.0
07/09:00am 3.8 1.6 3.5 98 0.1 NNE 4 4 2 2 - - 0.0
07/08:50am 3.3 1.4 3.0 98 0.1 NE 2 4 1 2 - - 0.0
07/08:40am 2.4 0.8 2.2 99 0.1 CALM 0 2 0 1 - - 0.0
07/08:30am 2.0 0.3 1.8 99 0.1 CALM 0 2 0 1 - - 0.0
07/08:20am 1.6 -0.6 1.3 98 0.1 WNW 2 2 1 1 - - 0.0
07/08:10am 1.4 -0.4 1.2 99 0.1 CALM 0 4 0 2 - - 0.0
07/08:00am 1.3 -0.9 1.1 99 0.1 S 2 4 1 2 - - 0.0
07/07:50am 1.3 -0.9 1.1 99 0.1 SW 2 4 1 2 - - 0.0
07/07:40am 1.3 -0.5 1.0 98 0.1 CALM 0 2 0 1 - - 0.0
07/07:30am 1.1 -1.1 0.9 99 0.1 W 2 4 1 2 - - 0.0
07/07:20am 1.1 -1.1 0.9 99 0.1 SE 2 2 1 1 - - 0.0
07/07:10am 1.1 -0.7 0.9 99 0.1 CALM 0 4 0 2 - - 0.0
07/07:00am 1.2 -1.0 1.0 99 0.1 WSW 2 4 1 2 - - 0.0
07/06:50am 1.2 -1.0 1.0 99 0.1 SW 2 4 1 2 - - 0.0
07/06:40am 1.3 -0.9 1.0 98 0.1 SSW 2 2 1 1 - - 0.0
07/06:30am 1.4 -0.8 1.1 98 0.1 SW 2 4 1 2 - - 0.0
07/06:20am 1.4 -0.8 1.1 98 0.1 WSW 2 4 1 2 - - 0.0
07/06:10am 1.4 -0.8 1.2 99 0.1 SW 2 4 1 2 - - 0.0
07/06:00am 1.5 -0.7 1.2 98 0.1 WSW 2 4 1 2 - - 0.0
07/05:50am 1.5 -0.7 1.3 99 0.1 WSW 2 4 1 2 - - 0.0
07/05:40am 1.8 -0.3 1.5 98 0.1 NNW 2 4 1 2 - - 0.0
07/05:30am 1.8 0.0 1.5 98 0.1 CALM 0 2 0 1 - - 0.0
07/05:20am 1.7 -0.4 1.4 98 0.1 SE 2 4 1 2 - - 0.0
07/05:10am 1.7 -0.1 1.4 98 0.1 CALM 0 2 0 1 - - 0.0
07/05:00am 1.8 -0.3 1.5 98 0.1 SSW 2 4 1 2 - - 0.0
07/04:50am 1.9 -0.2 1.6 98 0.1 SSW 2 4 1 2 - - 0.0
07/04:40am 1.9 -0.2 1.6 98 0.1 WSW 2 4 1 2 - - 0.0
07/04:30am 2.0 -0.1 1.7 98 0.1 NW 2 2 1 1 - - 0.0
07/04:20am 2.1 0.0 1.8 98 0.1 ENE 2 4 1 2 - - 0.0
07/04:10am 2.1 0.0 1.7 97 0.2 NE 2 4 1 2 - - 0.0
07/04:00am 2.1 0.0 1.7 97 0.2 SE 2 2 1 1 - - 0.0
07/03:50am 2.0 -0.1 1.7 98 0.1 SE 2 4 1 2 - - 0.0
07/03:40am 2.0 -0.1 1.6 97 0.2 SSW 2 4 1 2 - - 0.0
07/03:30am 2.0 -0.5 1.7 98 0.1 S 4 6 2 3 - - 0.0
07/03:20am 2.3 -0.1 1.9 97 0.2 SSW 4 6 2 3 - - 0.0
07/03:10am 2.5 0.1 2.1 97 0.2 SSW 4 4 2 2 - - 0.0
07/03:00am 2.7 0.3 2.3 97 0.2 S 4 4 2 2 - - 0.0
07/02:50am 2.8 0.8 2.4 97 0.2 SSW 2 4 1 2 - - 0.0
07/02:40am 2.8 0.8 2.3 96 0.2 SSW 2 4 1 2 - - 0.0
07/02:30am 2.8 0.8 2.3 96 0.2 E 2 2 1 1 - - 0.0
07/02:20am 2.8 0.8 2.3 96 0.2 SE 2 4 1 2 - - 0.0
07/02:10am 3.0 0.7 2.5 96 0.2 SSE 4 4 2 2 - - 0.0
07/02:00am 3.1 0.8 2.6 96 0.2 S 4 4 2 2 - - 0.0
07/01:50am 3.3 1.4 2.8 97 0.2 S 2 4 1 2 - - 0.0
07/01:40am 3.3 1.0 2.8 97 0.2 SE 4 4 2 2 - - 0.0
07/01:30am 3.5 1.6 2.9 96 0.3 SSE 2 4 1 2 - - 0.0
07/01:20am 3.5 1.6 3.0 97 0.2 E 2 4 1 2 - - 0.0
07/01:10am 3.6 1.7 3.0 96 0.3 NNE 2 4 1 2 - - 0.0
07/01:00am 3.6 1.3 3.0 96 0.3 SW 4 6 2 3 - - 0.0
07/12:50am 3.8 1.6 3.1 95 0.3 SSW 4 4 2 2 - - 0.0
07/12:40am 3.8 1.6 3.2 96 0.3 SSW 4 6 2 3 - - 0.0
07/12:30am 3.9 2.1 3.3 96 0.3 SW 2 4 1 2 - - 0.0
07/12:20am 4.0 2.6 3.4 96 0.3 CALM 0 2 0 1 - - 0.0
07/12:10am 4.0 2.2 3.4 96 0.3 NE 2 4 1 2 - - 0.0
07/12:00am 4.1 1.9 3.4 95 0.3 NNE 4 7 2 4 - - 0.0
 
Date/Time
EST
Temp
°C
App
Temp
°C
Dew
Point
°C
Rel
Hum
%
Delta-T
°C
Wind Press
QNH
hPa
Press
MSL
hPa
Rain since
9am
mm
Dir  Spd
km/h
Gust
km/h
Spd
kts
Gust
kts
06/11:50pm 4.1 1.9 3.4 95 0.3 NNE 4 6 2 3 - - 0.0
06/11:40pm 4.1 1.9 3.4 95 0.3 N 4 6 2 3 - - 0.0
06/11:30pm 4.0 1.8 3.3 95 0.3 NE 4 4 2 2 - - 0.0
06/11:20pm 4.1 2.3 3.3 94 0.3 ENE 2 4 1 2 - - 0.0
06/11:10pm 4.2 2.4 3.3 94 0.4 NE 2 4 1 2 - - 0.0
06/11:00pm 4.1 2.3 3.3 94 0.3 E 2 2 1 1 - - 0.0
06/10:50pm 4.1 2.3 3.2 94 0.4 E 2 4 1 2 - - 0.0
06/10:40pm 4.2 2.4 3.2 93 0.4 E 2 2 1 1 - - 0.0
06/10:30pm 4.4 2.6 3.3 93 0.5 E 2 4 1 2 - - 0.0
06/10:20pm 4.6 2.8 3.4 92 0.5 E 2 4 1 2 - - 0.0
06/10:10pm 4.8 2.6 3.5 91 0.6 E 4 4 2 2 - - 0.0
06/10:00pm 4.9 3.1 3.6 91 0.6 E 2 4 1 2 - - 0.0
06/09:50pm 4.9 3.1 3.6 91 0.6 ESE 2 4 1 2 - - 0.0
06/09:40pm 5.0 3.2 3.6 91 0.6 E 2 4 1 2 - - 0.0
06/09:30pm 5.3 3.6 3.8 90 0.7 SSE 2 4 1 2 - - 0.0
06/09:20pm 5.5 3.8 3.8 89 0.7 ESE 2 6 1 3 - - 0.0
06/09:10pm 5.6 3.9 4.1 90 0.7 S 2 4 1 2 - - 0.0
06/09:00pm 5.8 4.1 4.2 89 0.7 SSE 2 4 1 2 - - 0.0
06/08:50pm 5.9 3.9 4.3 89 0.7 S 4 4 2 2 - - 0.0
06/08:40pm 6.0 4.4 4.4 89 0.7 SSE 2 4 1 2 - - 0.0
06/08:30pm 6.1 4.5 4.5 89 0.7 E 2 4 1 2 - - 0.0
06/08:20pm 6.1 4.5 4.5 89 0.7 SSE 2 4 1 2 - - 0.0
06/08:10pm 6.2 4.6 4.5 89 0.8 S 2 4 1 2 - - 0.0
06/08:00pm 6.2 4.6 4.6 89 0.7 E 2 4 1 2 - - 0.0
06/07:50pm 6.2 4.6 4.5 89 0.8 ESE 2 6 1 3 - - 0.0
06/07:40pm 6.3 4.3 4.6 89 0.8 - 4 4 2 2 - - 0.0
06/07:30pm 6.2 4.2 4.6 89 0.7 SE 4 6 2 3 - - 0.0
06/07:20pm 6.3 4.3 4.6 89 0.8 ESE 4 6 2 3 - - 0.0
06/07:10pm 6.3 4.4 4.7 89 0.7 NE 4 6 2 3 - - 0.0
06/07:00pm 6.4 4.5 4.7 89 0.8 E 4 6 2 3 - - 0.0
06/06:50pm 6.4 4.5 4.7 89 0.8 E 4 6 2 3 - - 0.0
06/06:40pm 6.4 4.5 4.7 89 0.8 ENE 4 6 2 3 - - 0.0
06/06:30pm 6.4 4.5 4.7 89 0.8 ENE 4 6 2 3 - - 0.0
06/06:20pm 6.3 4.4 4.8 90 0.7 W 4 4 2 2 - - 0.0
06/06:10pm 6.4 4.9 4.8 89 0.7 W 2 4 1 2 - - 0.0
06/06:00pm 6.4 4.5 4.8 89 0.7 NW 4 6 2 3 - - 0.0
06/05:50pm 6.3 4.8 4.8 90 0.7 WNW 2 4 1 2 - - 0.0
06/05:40pm 6.2 4.6 4.7 90 0.7 W 2 4 1 2 - - 0.0
06/05:30pm 6.2 4.3 4.8 91 0.6 NW 4 6 2 3 - - 0.0
06/05:20pm 6.2 4.3 4.7 90 0.7 WNW 4 6 2 3 - - 0.0
06/05:10pm 6.2 4.6 4.6 89 0.7 NW 2 4 1 2 - - 0.0
06/05:00pm 6.2 4.3 4.7 90 0.7 NNW 4 7 2 4 - - 0.0
06/04:50pm 6.1 4.2 4.7 91 0.6 WNW 4 6 2 3 - - 0.0
06/04:40pm 6.2 4.3 4.8 91 0.6 NNW 4 6 2 3 - - 0.0
06/04:30pm 6.1 3.8 4.6 90 0.7 NW 6 7 3 4 - - 0.0
06/04:20pm 6.0 3.6 4.5 90 0.7 WNW 6 7 3 4 - - 0.0
06/04:10pm 5.9 3.5 4.4 90 0.7 NW 6 7 3 4 - - 0.0
06/04:00pm 6.0 3.6 4.4 89 0.7 NW 6 7 3 4 - - 0.0
06/03:50pm 6.2 3.9 4.6 89 0.7 WNW 6 7 3 4 - - 0.0
06/03:40pm 6.3 4.0 4.6 89 0.8 NW 6 7 3 4 - - 0.0
06/03:30pm 6.2 3.9 4.6 89 0.7 NNW 6 7 3 4 - - 0.0
06/03:20pm 6.2 3.8 4.5 89 0.8 NNW 6 9 3 5 - - 0.0
06/03:10pm 6.1 3.5 4.4 89 0.8 NW 7 9 4 5 - - 0.0
06/03:00pm 6.3 3.4 4.5 88 0.8 WNW 9 11 5 6 - - 0.0
06/02:50pm 6.3 3.8 4.6 89 0.8 NNW 7 9 4 5 - - 0.0
06/02:40pm 6.3 3.8 4.5 88 0.8 NW 7 7 4 4 - - 0.0
06/02:30pm 6.5 4.0 4.5 87 0.9 NNW 7 9 4 5 - - 0.0
06/02:20pm 6.8 4.3 4.5 85 1.0 NNW 7 7 4 4 - - 0.0
06/02:10pm 6.9 4.4 4.6 85 1.0 NNW 7 9 4 5 - - 0.0
06/02:00pm 7.1 4.2 4.6 84 1.1 WNW 9 11 5 6 - - 0.0
06/01:50pm 7.4 5.0 4.5 82 1.3 NW 6 9 3 5 - - 0.0
06/01:40pm 7.4 5.1 4.6 82 1.3 NW 6 7 3 4 - - 0.0
06/01:30pm 7.2 4.8 4.5 83 1.2 NNW 6 7 3 4 - - 0.0
06/01:20pm 6.9 4.5 4.3 83 1.2 WNW 6 7 3 4 - - 0.0
06/01:10pm 6.7 4.3 4.4 85 1.0 WNW 6 7 3 4 - - 0.0
06/01:00pm 6.5 3.9 4.3 86 1.0 WNW 7 7 4 4 - - 0.0
06/12:50pm 6.5 4.1 4.4 86 0.9 NNW 6 7 3 4 - - 0.0
06/12:40pm 6.1 3.7 4.2 88 0.8 NW 6 7 3 4 - - 0.0
06/12:30pm 6.0 3.6 4.3 89 0.8 NNW 6 9 3 5 - - 0.0
06/12:20pm 5.8 3.4 4.3 90 0.7 NNW 6 7 3 4 - - 0.0
06/12:10pm 5.7 3.7 4.3 91 0.6 WNW 4 6 2 3 - - 0.0
06/12:00pm 5.5 3.1 4.3 92 0.5 N 6 7 3 4 - - 0.0
06/11:50am 5.4 3.4 4.5 94 0.4 N 4 6 2 3 - - 0.0
06/11:40am 5.0 3.0 4.4 96 0.3 NNW 4 6 2 3 - - 0.0
06/11:30am 4.6 2.6 4.2 97 0.2 N 4 6 2 3 - - 0.0
06/11:20am 4.5 2.4 4.0 97 0.2 NW 4 6 2 3 - - 0.0
06/11:10am 4.3 2.2 3.9 97 0.2 NNW 4 6 2 3 - - 0.0
06/11:00am 4.1 1.6 3.8 98 0.1 N 6 7 3 4 - - 0.0
06/10:50am 4.0 1.9 3.7 98 0.1 N 4 4 2 2 - - 0.0
06/10:40am 3.8 1.3 3.5 98 0.1 NNW 6 6 3 3 - - 0.0
06/10:30am 3.7 1.5 3.5 99 0.1 NNW 4 6 2 3 - - 0.0
06/10:20am 3.4 1.2 3.2 99 0.1 N 4 4 2 2 - - 0.0
06/10:10am 3.3 1.1 3.1 99 0.1 N 4 4 2 2 - - 0.0
06/10:00am 3.2 1.3 2.9 98 0.1 WNW 2 4 1 2 - - 0.0
06/09:50am 2.8 0.9 2.6 99 0.1 NE 2 4 1 2 - - 0.0
06/09:40am 2.6 0.6 2.4 99 0.1 SE 2 6 1 3 - - 0.0
06/09:30am 2.6 0.2 2.4 99 0.1 NNE 4 7 2 4 - - 0.0
06/09:20am 2.5 0.5 2.3 99 0.1 ENE 2 4 1 2 - - 0.0
06/09:10am 2.5 0.1 2.3 99 0.1 WNW 4 6 2 3 - - 0.0
06/09:00am 2.4 0.4 2.2 99 0.1 N 2 4 1 2 - - 0.0
06/08:50am 2.4 0.0 2.2 99 0.1 WNW 4 4 2 2 - - 0.0
06/08:40am 2.3 0.3 2.1 99 0.1 W 2 4 1 2 - - 0.0
06/08:30am 2.1 0.0 1.9 99 0.1 NNE 2 4 1 2 - - 0.0
06/08:20am 2.1 0.0 1.9 99 0.1 SE 2 4 1 2 - - 0.0
06/08:10am 2.2 -0.2 1.9 98 0.1 NNE 4 6 2 3 - - 0.0
06/08:00am 2.3 -0.1 2.0 98 0.1 NW 4 6 2 3 - - 0.0
06/07:50am 2.3 -0.1 2.1 99 0.1 NW 4 6 2 3 - - 0.0
06/07:40am 2.3 -0.1 2.1 99 0.1 NW 4 6 2 3 - - 0.0
06/07:30am 2.4 0.0 2.2 99 0.1 WNW 4 6 2 3 - - 0.0
06/07:20am 2.5 0.1 2.2 98 0.1 NW 4 6 2 3 - - 0.0
06/07:10am 2.5 0.1 2.3 99 0.1 WNW 4 4 2 2 - - 0.0
06/07:00am 2.6 0.2 2.3 98 0.1 WNW 4 6 2 3 - - 0.0
06/06:50am 2.6 0.2 2.4 99 0.1 WNW 4 6 2 3 - - 0.0
06/06:40am 2.7 0.3 2.4 98 0.1 WNW 4 6 2 3 - - 0.0
06/06:30am 2.7 0.4 2.5 99 0.1 WNW 4 4 2 2 - - 0.0
06/06:20am 2.8 0.5 2.6 99 0.1 WNW 4 4 2 2 - - 0.0
06/06:10am 2.9 0.6 2.6 98 0.1 WNW 4 4 2 2 - - 0.0
06/06:00am 2.9 1.0 2.7 99 0.1 W 2 6 1 3 - - 0.0
06/05:50am 3.0 1.1 2.7 98 0.1 WSW 2 6 1 3 - - 0.0
06/05:40am 3.1 1.2 2.8 98 0.1 W 2 6 1 3 - - 0.0
06/05:30am 3.2 1.3 2.9 98 0.1 W 2 4 1 2 - - 0.0
06/05:20am 3.2 1.3 2.9 98 0.1 WNW 2 4 1 2 - - 0.0
06/05:10am 3.4 1.2 3.1 98 0.1 NW 4 4 2 2 - - 0.0
06/05:00am 3.5 0.9 3.2 98 0.1 NW 6 6 3 3 - - 0.0
06/04:50am 3.6 1.4 3.3 98 0.1 NW 4 6 2 3 - - 0.0
06/04:40am 3.7 1.9 3.4 98 0.1 ENE 2 2 1 1 - - 0.0
06/04:30am 3.7 1.5 3.4 98 0.1 NE 4 6 2 3 - - 0.0
06/04:20am 3.8 1.3 3.5 98 0.1 NNE 6 6 3 3 - - 0.0
06/04:10am 3.8 2.0 3.5 98 0.1 NNW 2 4 1 2 - - 0.0
06/04:00am 4.0 2.2 3.7 98 0.1 NW 2 4 1 2 - - 0.0
06/03:50am 4.1 2.4 3.8 98 0.1 N 2 4 1 2 - - 0.0
06/03:40am 4.2 2.5 3.8 97 0.2 NE 2 4 1 2 - - 0.0
06/03:30am 4.2 2.1 3.8 97 0.2 NNE 4 4 2 2 - - 0.0
06/03:20am 4.1 2.3 3.7 97 0.2 NW 2 6 1 3 - - 0.0
06/03:10am 4.2 2.5 3.8 97 0.2 WNW 2 6 1 3 - - 0.0
06/03:00am 4.1 2.7 3.7 97 0.2 CALM 0 2 0 1 - - 0.0
06/02:50am 4.0 2.6 3.6 97 0.2 CALM 0 2 0 1 - - 0.0
06/02:40am 3.9 2.5 3.5 97 0.2 CALM 0 0 0 0 - - 0.0
06/02:30am 3.9 2.5 3.4 97 0.2 CALM 0 2 0 1 - - 0.0
06/02:20am 3.8 2.4 3.3 97 0.2 CALM 0 2 0 1 - - 0.0
06/02:10am 3.6 2.1 3.1 97 0.2 CALM 0 2 0 1 - - 0.0
06/02:00am 3.5 1.6 3.0 97 0.2 E 2 2 1 1 - - 0.0
06/01:50am 3.4 1.5 2.8 96 0.2 ESE 2 2 1 1 - - 0.0
06/01:40am 3.4 1.5 2.8 96 0.2 ESE 2 2 1 1 - - 0.0
06/01:30am 3.1 1.5 2.6 96 0.2 CALM 0 4 0 2 - - 0.0
06/01:20am 2.8 0.8 2.3 96 0.2 SSE 2 4 1 2 - - 0.0
06/01:10am 2.6 0.5 2.0 96 0.2 SSE 2 2 1 1 - - 0.0
06/01:00am 2.4 0.7 1.9 96 0.2 CALM 0 2 0 1 - - 0.0
06/12:50am 2.2 0.1 1.6 96 0.2 S 2 4 1 2 - - 0.0
06/12:40am 1.8 -0.4 1.3 96 0.2 S 2 4 1 2 - - 0.0
06/12:30am 1.8 -0.4 1.2 96 0.2 SSW 2 4 1 2 - - 0.0
06/12:20am 1.7 -0.5 1.1 96 0.2 NE 2 4 1 2 - - 0.0
06/12:10am 1.0 -0.9 0.4 96 0.2 CALM 0 4 0 2 - - 0.0
06/12:00am 0.8 -1.5 0.1 95 0.3 S 2 4 1 2 - - 0.0
 
Date/Time
EST
Temp
°C
App
Temp
°C
Dew
Point
°C
Rel
Hum
%
Delta-T
°C
Wind Press
QNH
hPa
Press
MSL
hPa
Rain since
9am
mm
Dir  Spd
km/h
Gust
km/h
Spd
kts
Gust
kts
05/11:50pm 0.9 -1.1 0.2 95 0.3 CALM 0 2 0 1 - - 0.0
05/11:40pm 1.0 -0.9 0.3 95 0.3 CALM 0 2 0 1 - - 0.0
05/11:30pm 1.1 -1.2 0.4 95 0.3 S 2 2 1 1 - - 0.0
05/11:20pm 1.1 -0.8 0.4 95 0.3 CALM 0 2 0 1 - - 0.0
05/11:10pm 1.4 -0.9 0.7 95 0.3 SSW 2 4 1 2 - - 0.0
05/11:00pm 1.6 -0.6 1.0 96 0.2 SSE 2 2 1 1 - - 0.0
05/10:50pm 1.8 -0.4 1.1 95 0.3 SE 2 2 1 1 - - 0.0
05/10:40pm 1.6 -0.2 0.9 95 0.3 CALM 0 2 0 1 - - 0.0
05/10:30pm 1.7 -0.5 0.9 94 0.3 S 2 4 1 2 - - 0.0
05/10:20pm 2.0 -0.2 1.2 94 0.3 SSE 2 4 1 2 - - 0.0
05/10:10pm 2.0 -0.2 1.2 94 0.3 S 2 4 1 2 - - 0.0
05/10:00pm 2.3 0.2 1.5 94 0.3 S 2 4 1 2 - - 0.0
05/09:50pm 2.5 0.4 1.7 94 0.3 S 2 4 1 2 - - 0.0
05/09:40pm 2.8 0.8 2.1 95 0.3 SSE 2 4 1 2 - - 0.0
05/09:30pm 2.9 0.9 2.2 95 0.3 ESE 2 4 1 2 - - 0.0
05/09:20pm 2.8 0.4 1.9 94 0.4 S 4 6 2 3 - - 0.0
05/09:10pm 2.9 0.9 2.1 94 0.3 S 2 4 1 2 - - 0.0
05/09:00pm 3.1 1.1 2.2 94 0.4 SSE 2 4 1 2 - - 0.0
05/08:50pm 3.0 0.9 2.0 93 0.4 SE 2 4 1 2 - - 0.0
05/08:40pm 3.3 0.9 2.4 94 0.4 S 4 4 2 2 - - 0.0
05/08:30pm 3.7 2.1 2.7 93 0.4 CALM 0 4 0 2 - - 0.0
05/08:20pm 4.0 2.1 3.1 94 0.4 WNW 2 4 1 2 - - 0.0
05/08:10pm 4.0 2.1 2.9 92 0.5 S 2 4 1 2 - - 0.0
05/08:00pm 4.1 2.2 3.0 92 0.5 S 2 4 1 2 - - 0.0
05/07:50pm 4.1 2.2 2.9 92 0.5 SSE 2 4 1 2 - - 0.0
05/07:40pm 4.2 2.3 2.9 91 0.5 S 2 4 1 2 - - 0.0
05/07:30pm 4.6 2.3 3.0 89 0.7 S 4 4 2 2 - - 0.0
05/07:20pm 5.1 3.3 3.4 89 0.7 S 2 4 1 2 - - 0.0
05/07:10pm 5.6 3.9 3.9 89 0.7 SSW 2 4 1 2 - - 0.0
05/07:00pm 5.8 3.7 4.0 88 0.8 S 4 4 2 2 - - 0.0
05/06:50pm 6.3 4.6 4.2 86 0.9 SW 2 4 1 2 - - 0.0
05/06:40pm 6.8 5.3 4.8 87 0.9 N 2 4 1 2 - - 0.0
05/06:30pm 7.2 5.3 5.1 86 1.0 NNE 4 6 2 3 - - 0.0
05/06:20pm 7.3 5.8 5.1 86 1.0 NNE 2 6 1 3 - - 0.0
05/06:10pm 7.4 5.9 5.0 85 1.1 NW 2 4 1 2 - - 0.0
05/06:00pm 8.1 6.7 5.5 84 1.2 NNE 2 4 1 2 - - 0.0
05/05:50pm 8.3 6.9 5.6 83 1.3 ENE 2 4 1 2 - - 0.0
05/05:40pm 8.7 7.2 5.2 79 1.6 ENE 2 2 1 1 - - 0.0
05/05:30pm 9.0 7.6 5.3 77 1.7 N 2 4 1 2 - - 0.0
05/05:20pm 9.5 7.7 5.6 76 1.8 NE 4 4 2 2 - - 0.0
05/05:10pm 9.9 8.1 5.6 74 2.0 N 4 4 2 2 - - 0.0
05/05:00pm 10.4 8.2 5.5 71 2.3 NW 6 7 3 4 - - 0.0
05/04:50pm 11.2 9.1 5.7 69 2.6 NW 6 7 3 4 - - 0.0
05/04:40pm 11.8 9.5 5.7 66 2.9 NNW 7 7 4 4 - - 0.0
05/04:30pm 12.2 9.9 5.6 64 3.2 NNW 7 9 4 5 - - 0.0
05/04:20pm 12.5 10.2 5.5 62 3.4 NNW 7 9 4 5 - - 0.0
05/04:10pm 12.8 10.5 5.5 61 3.5 N 7 9 4 5 - - 0.0
05/04:00pm 13.1 10.8 5.6 60 3.6 N 7 11 4 6 - - 0.0
05/03:50pm 13.4 11.0 5.4 58 3.9 NNW 7 9 4 5 - - 0.0
05/03:40pm 13.3 10.9 5.4 59 3.8 NNW 7 11 4 6 - - 0.0
05/03:30pm 13.6 11.2 5.4 57 4.0 NNW 7 9 4 5 - - 0.0
05/03:20pm 13.8 11.5 5.5 57 4.0 NNW 7 9 4 5 - - 0.0
05/03:10pm 13.9 11.5 5.2 55 4.2 NNW 7 11 4 6 - - 0.0
05/03:00pm 14.0 11.7 5.5 56 4.1 NNW 7 11 4 6 - - 0.0
05/02:50pm 14.3 11.9 5.2 54 4.4 NNW 7 9 4 5 - - 0.0
05/02:40pm 14.3 11.8 4.9 53 4.5 NNW 7 9 4 5 - - 0.0
05/02:30pm 14.3 11.8 4.6 52 4.6 NW 7 7 4 4 - - 0.0
05/02:20pm 14.4 12.0 5.2 54 4.5 NNW 7 9 4 5 - - 0.0
05/02:10pm 14.8 12.6 5.2 52 4.7 WNW 6 7 3 4 - - 0.0
05/02:00pm 15.0 12.6 4.1 48 5.2 NW 6 7 3 4 - - 0.0
05/01:50pm 14.8 12.3 3.6 47 5.3 NNW 6 9 3 5 - - 0.0
05/01:40pm 14.8 12.3 4.0 48 5.1 NW 6 9 3 5 - - 0.0
05/01:30pm 14.8 12.2 3.3 46 5.4 WNW 6 7 3 4 - - 0.0
05/01:20pm 14.4 12.3 3.7 48 5.0 N 4 7 2 4 - - 0.0
05/01:10pm 14.3 11.7 3.4 48 5.1 NNE 6 7 3 4 - - 0.0
05/01:00pm 14.8 12.6 3.4 46 5.3 NNW 4 7 2 4 - - 0.0
05/12:50pm 14.5 12.4 3.8 48 5.0 NW 4 6 2 3 - - 0.0
05/12:40pm 14.2 11.5 2.9 46 5.2 N 6 7 3 4 - - 0.0
05/12:30pm 14.4 12.4 4.6 51 4.7 N 4 6 2 3 - - 0.0
05/12:20pm 14.0 11.8 3.3 48 5.0 NNE 4 6 2 3 - - 0.0
05/12:10pm 13.6 11.8 3.6 51 4.7 SSE 2 4 1 2 - - 0.0
05/12:00pm 13.1 10.6 3.6 52 4.4 NNE 6 7 3 4 - - 0.0
05/11:50am 13.3 10.8 3.6 52 4.5 NE 6 6 3 3 - - 0.0
05/11:40am 13.4 11.2 3.1 49 4.7 NNE 4 6 2 3 - - 0.0
05/11:30am 12.8 10.6 3.5 53 4.3 NE 4 6 2 3 - - 0.0
05/11:20am 12.8 10.2 3.2 52 4.4 NE 6 6 3 3 - - 0.0
05/11:10am 12.6 10.4 3.6 54 4.2 NNE 4 6 2 3 - - 0.0
05/11:00am 12.6 10.5 3.7 54 4.1 N 4 4 2 2 - - 0.0
05/10:50am 12.6 10.9 3.9 55 4.0 N 2 4 1 2 - - 0.0
05/10:40am 12.1 10.0 4.1 58 3.7 N 4 4 2 2 - - 0.0
05/10:30am 11.8 10.2 4.3 60 3.5 NE 2 4 1 2 - - 0.0
05/10:20am 11.5 9.9 4.6 62 3.2 N 2 4 1 2 - - 0.0
05/10:10am 11.4 9.8 4.7 63 3.1 N 2 4 1 2 - - 0.0
05/10:00am 10.9 9.3 4.6 65 2.9 NNW 2 4 1 2 - - 0.0
05/09:50am 10.4 8.8 4.5 67 2.7 N 2 2 1 1 - - 0.0
05/09:40am 9.5 7.8 4.2 69 2.4 N 2 4 1 2 - - 0.0
05/09:30am 9.2 7.6 4.4 72 2.2 N 2 2 1 1 - - 0.0
05/09:20am 8.5 6.8 4.2 74 1.9 N 2 4 1 2 - - 0.0
05/09:10am 7.8 6.1 3.9 76 1.7 NNE 2 4 1 2 - - 0.0
05/09:00am 7.3 5.5 3.5 77 1.7 N 2 2 1 1 - - 0.2
05/08:50am 6.9 5.1 3.4 78 1.5 NNW 2 4 1 2 - - 0.2
05/08:40am 5.9 4.4 3.1 82 1.2 CALM 0 2 0 1 - - 0.2
05/08:30am 4.8 3.3 2.8 87 0.8 CALM 0 0 0 0 - - 0.2
05/08:20am 3.7 2.1 2.5 92 0.5 CALM 0 2 0 1 - - 0.2
05/08:10am 2.9 1.2 1.9 93 0.4 CALM 0 0 0 0 - - 0.2
05/08:00am 2.2 0.4 1.4 94 0.3 CALM 0 0 0 0 - - 0.2
05/07:50am 1.3 -1.0 0.5 94 0.3 SSW 2 2 1 1 - - 0.2
05/07:40am 0.9 -1.5 0.0 94 0.3 S 2 2 1 1 - - 0.2
05/07:30am 0.6 -1.8 -0.2 94 0.3 S 2 2 1 1 - - 0.2
05/07:20am 0.8 -1.6 -0.1 94 0.3 S 2 2 1 1 - - 0.2
05/07:10am 1.2 -1.1 0.3 94 0.3 ESE 2 4 1 2 - - 0.2
05/07:00am 1.4 -0.9 0.6 94 0.3 S 2 4 1 2 - - 0.2
05/06:50am 1.6 -0.7 0.7 94 0.3 SSE 2 4 1 2 - - 0.2
05/06:40am 1.7 -0.9 0.8 94 0.3 S 4 6 2 3 - - 0.2
05/06:30am 1.8 -0.4 0.8 93 0.4 SE 2 4 1 2 - - 0.2
05/06:20am 1.9 -0.7 0.9 93 0.4 S 4 4 2 2 - - 0.2
05/06:10am 2.0 -0.2 1.0 93 0.4 S 2 6 1 3 - - 0.2
05/06:00am 2.1 -0.5 0.9 92 0.5 SE 4 6 2 3 - - 0.2
05/05:50am 2.2 -0.4 1.0 92 0.5 SSE 4 4 2 2 - - 0.2
05/05:40am 2.7 0.2 1.4 91 0.5 SE 4 4 2 2 - - 0.2
05/05:30am 3.0 0.9 1.7 91 0.5 SE 2 4 1 2 - - 0.2
05/05:20am 3.1 1.0 1.7 90 0.6 ESE 2 4 1 2 - - 0.2
05/05:10am 3.6 1.5 1.9 89 0.7 S 2 4 1 2 - - 0.2
05/05:00am 4.5 2.5 2.5 87 0.8 E 2 4 1 2 - - 0.2
05/04:50am 4.8 2.9 2.8 87 0.8 NW 2 4 1 2 - - 0.2
05/04:40am 5.1 2.8 3.0 86 0.9 NNW 4 4 2 2 - - 0.2
05/04:30am 5.7 3.5 3.2 84 1.1 NNW 4 6 2 3 - - 0.2
05/04:20am 6.7 4.1 3.3 79 1.5 WNW 6 7 3 4 - - 0.2
05/04:10am 6.6 3.8 3.1 78 1.5 W 7 9 4 5 - - 0.2
05/04:00am 6.4 3.2 3.1 79 1.4 W 9 11 5 6 - - 0.2
05/03:50am 6.2 3.4 3.1 80 1.3 W 7 11 4 6 - - 0.2
05/03:40am 5.8 3.0 2.9 82 1.2 W 7 9 4 5 - - 0.2
05/03:30am 5.7 2.9 3.1 83 1.1 WNW 7 9 4 5 - - 0.2
05/03:20am 5.7 2.9 3.1 83 1.1 W 7 9 4 5 - - 0.2
05/03:10am 5.5 2.7 3.3 86 0.9 WNW 7 9 4 5 - - 0.2
05/03:00am 5.6 2.9 3.6 87 0.9 WNW 7 7 4 4 - - 0.2
05/02:50am 5.8 3.1 3.7 86 0.9 WNW 7 11 4 6 - - 0.2
05/02:40am 5.8 2.4 3.8 87 0.9 W 11 13 6 7 - - 0.2
05/02:30am 5.5 2.1 3.8 89 0.7 W 11 13 6 7 - - 0.2
05/02:20am 5.3 2.2 3.7 89 0.7 W 9 11 5 6 - - 0.2
05/02:10am 5.3 2.6 3.6 89 0.7 WNW 7 9 4 5 - - 0.2
05/02:00am 5.3 2.6 3.6 89 0.7 WNW 7 9 4 5 - - 0.2
05/01:50am 5.4 2.6 3.3 86 0.9 WNW 7 9 4 5 - - 0.2
05/01:40am 5.4 2.8 3.1 85 1.0 WNW 6 7 3 4 - - 0.2
05/01:30am 5.3 2.5 3.1 86 0.9 NW 7 9 4 5 - - 0.2
05/01:20am 5.0 2.2 2.9 86 0.9 NW 7 7 4 4 - - 0.2
05/01:10am 5.0 2.3 2.9 86 0.9 NNW 6 7 3 4 - - 0.2
05/01:00am 5.3 2.5 2.9 84 1.0 NW 7 9 4 5 - - 0.2
05/12:50am 5.3 2.6 2.8 84 1.1 NW 6 7 3 4 - - 0.2
05/12:40am 5.4 2.7 2.8 83 1.1 N 6 9 3 5 - - 0.2
05/12:30am 5.5 2.8 2.9 83 1.1 NNE 6 7 3 4 - - 0.2
05/12:20am 6.2 3.9 2.9 79 1.4 NE 4 9 2 5 - - 0.2
05/12:10am 6.9 3.7 2.9 76 1.7 WNW 9 13 5 7 - - 0.2
05/12:00am 6.6 3.7 2.7 76 1.7 WNW 7 11 4 6 - - 0.2
 
Date/Time
EST
Temp
°C
App
Temp
°C
Dew
Point
°C
Rel
Hum
%
Delta-T
°C
Wind Press
QNH
hPa
Press
MSL
hPa
Rain since
9am
mm
Dir  Spd
km/h
Gust
km/h
Spd
kts
Gust
kts
04/11:50pm 6.3 3.6 2.9 79 1.5 NW 6 7 3 4 - - 0.2
04/11:40pm 6.2 3.5 2.8 79 1.5 NW 6 9 3 5 - - 0.2
04/11:30pm 6.2 3.3 2.6 78 1.5 WNW 7 9 4 5 - - 0.2
04/11:20pm 6.5 3.2 2.7 77 1.6 WNW 9 9 5 5 - - 0.2
04/11:10pm 6.5 3.6 2.7 77 1.6 WNW 7 9 4 5 - - 0.2
04/11:00pm 6.6 3.3 2.7 76 1.7 WNW 9 13 5 7 - - 0.2
04/10:50pm 6.7 3.4 2.6 75 1.8 WNW 9 11 5 6 - - 0.2
04/10:40pm 6.5 3.2 2.5 75 1.7 WNW 9 11 5 6 - - 0.2
04/10:30pm 6.4 3.5 2.4 75 1.7 WNW 7 9 4 5 - - 0.2
04/10:20pm 6.5 3.2 2.4 75 1.7 WNW 9 11 5 6 - - 0.2
04/10:10pm 6.6 3.3 2.4 74 1.8 WNW 9 11 5 6 - - 0.2
04/10:00pm 6.7 3.4 2.4 74 1.8 WNW 9 11 5 6 - - 0.2
04/09:50pm 6.6 3.6 2.2 73 1.9 WNW 7 11 4 6 - - 0.2
04/09:40pm 6.6 3.8 2.3 74 1.8 WNW 6 9 3 5 - - 0.2
04/09:30pm 6.7 3.7 2.1 72 1.9 WNW 7 11 4 6 - - 0.2
04/09:20pm 6.7 3.7 2.0 72 2.0 W 7 9 4 5 - - 0.2
04/09:10pm 6.7 3.7 1.8 71 2.1 W 7 9 4 5 - - 0.2
04/09:00pm 6.8 3.8 1.7 70 2.1 W 7 9 4 5 - - 0.2
04/08:50pm 6.8 3.4 1.8 70 2.1 W 9 11 5 6 - - 0.2
04/08:40pm 6.9 3.9 1.9 70 2.1 W 7 9 4 5 - - 0.2
04/08:30pm 7.0 3.6 1.8 69 2.2 W 9 11 5 6 - - 0.2
04/08:20pm 7.0 3.6 1.8 69 2.2 WSW 9 11 5 6 - - 0.2
04/08:10pm 7.0 3.2 1.9 70 2.2 W 11 13 6 7 - - 0.2
04/08:00pm 7.2 3.4 2.0 69 2.2 WSW 11 15 6 8 - - 0.2
04/07:50pm 7.4 2.9 2.0 68 2.3 WSW 15 17 8 9 - - 0.2
04/07:40pm 7.6 3.8 1.7 66 2.5 WSW 11 13 6 7 - - 0.2
04/07:30pm 7.7 3.9 1.5 65 2.6 WSW 11 15 6 8 - - 0.2
04/07:20pm 7.5 4.0 1.4 65 2.6 WSW 9 11 5 6 - - 0.2
04/07:10pm 7.7 4.3 1.6 65 2.6 WSW 9 17 5 9 - - 0.2
04/07:00pm 7.9 3.3 1.4 63 2.7 WSW 15 19 8 10 - - 0.2
04/06:50pm 7.9 3.3 1.4 63 2.7 WSW 15 17 8 9 - - 0.2
04/06:40pm 7.8 3.2 1.6 65 2.6 W 15 19 8 10 - - 0.2
04/06:30pm 7.6 3.4 1.7 66 2.5 W 13 15 7 8 - - 0.2
04/06:20pm 7.7 3.9 1.7 66 2.5 W 11 13 6 7 - - 0.2
04/06:10pm 7.7 3.9 1.8 66 2.5 W 11 13 6 7 - - 0.2
04/06:00pm 7.7 3.9 1.7 66 2.5 W 11 13 6 7 - - 0.2
04/05:50pm 7.9 3.7 1.7 65 2.6 W 13 15 7 8 - - 0.2
04/05:40pm 8.2 3.6 1.6 63 2.8 W 15 19 8 10 - - 0.2
04/05:30pm 8.4 3.8 1.3 61 3.0 WSW 15 19 8 10 - - 0.2
04/05:20pm 8.5 3.5 1.2 60 3.1 WSW 17 19 9 10 - - 0.2
04/05:10pm 8.6 3.9 1.2 59 3.1 WSW 15 19 8 10 - - 0.2
04/05:00pm 8.9 3.9 1.3 59 3.2 WSW 17 20 9 11 - - 0.2
04/04:50pm 9.1 4.1 1.4 58 3.3 WSW 17 19 9 10 - - 0.2
04/04:40pm 9.7 5.5 1.5 56 3.5 W 13 19 7 10 - - 0.0
04/04:30pm 10.2 5.6 1.5 55 3.8 WSW 15 19 8 10 - - 0.0
04/04:20pm 10.6 6.0 1.4 53 4.0 W 15 19 8 10 - - 0.0
04/04:10pm 10.9 6.7 1.5 52 4.1 W 13 17 7 9 - - 0.0
04/04:00pm 11.3 7.4 1.4 50 4.3 W 11 15 6 8 - - 0.0
04/03:50pm 11.6 7.4 1.4 49 4.4 W 13 15 7 8 - - 0.0
04/03:40pm 12.0 8.1 1.1 47 4.7 W 11 13 6 7 - - 0.0
04/03:30pm 12.0 8.1 1.1 47 4.7 W 11 15 6 8 - - 0.0
04/03:20pm 12.2 8.7 1.0 46 4.9 W 9 13 5 7 - - 0.0
04/03:10pm 12.3 8.7 0.9 45 4.9 W 9 13 5 7 - - 0.0
04/03:00pm 12.4 8.7 -0.3 41 5.4 W 9 11 5 6 - - 0.0
04/02:50pm 12.4 8.7 -0.1 42 5.3 W 9 11 5 6 - - 0.0
04/02:40pm 12.4 8.7 0.0 42 5.3 W 9 9 5 5 - - 0.0
04/02:30pm 12.2 8.8 -0.4 42 5.3 W 7 13 4 7 - - 0.0
04/02:20pm 11.9 7.8 -0.1 43 5.1 W 11 13 6 7 - - 0.0
04/02:10pm 11.9 8.2 0.0 44 5.0 W 9 13 5 7 - - 0.0
04/02:00pm 11.8 7.7 -0.5 42 5.1 W 11 15 6 8 - - 0.0
04/01:50pm 11.9 7.8 -0.4 42 5.2 W 11 13 6 7 - - 0.0
04/01:40pm 11.7 7.2 -0.1 44 5.0 W 13 15 7 8 - - 0.0
04/01:30pm 11.7 8.0 -0.1 44 5.0 W 9 13 5 7 - - 0.0
04/01:20pm 11.7 8.1 0.6 46 4.8 W 9 11 5 6 - - 0.0
04/01:10pm 11.5 7.9 0.3 46 4.8 W 9 11 5 6 - - 0.0
04/01:00pm 11.5 8.3 0.5 46 4.7 W 7 9 4 5 - - 0.0

Latest Capital City Observations: Canberra | Sydney | Melbourne | Brisbane | Adelaide | Perth | Hobart | Darwin

Other formats

Comma delimited format used in spreadsheet applications
http://www.bom.gov.au/fwo/IDN60903/IDN60903.99146.axf

JavaScript Object Notation format (JSON) in row-major order
http://www.bom.gov.au/fwo/IDN60903/IDN60903.99146.json

Data quality

Most of these data are generated automatically and are frequently updated. Quality checks on data are not normally performed. It is possible for incorrect values to appear. Refer to information at About Latest Weather Observations and please check the disclaimer before using these data.